createdAt,value
2017-10-18T00:00:31.811Z,12.3
2017-10-18T00:01:32.465Z,12.3
2017-10-18T00:02:33.123Z,12.2
2017-10-18T00:03:33.775Z,12.2
2017-10-18T00:04:34.428Z,12.3
2017-10-18T00:05:35.081Z,12.2
2017-10-18T00:06:35.735Z,12.3
2017-10-18T00:07:36.390Z,12.3
2017-10-18T00:08:37.042Z,12.3
2017-10-18T00:09:37.697Z,12.2
2017-10-18T00:10:38.352Z,12.2
2017-10-18T00:11:39.006Z,12.2
2017-10-18T00:12:39.660Z,12.2
2017-10-18T00:13:40.313Z,12.3
2017-10-18T00:14:40.969Z,12.2
2017-10-18T00:15:41.624Z,12.2
2017-10-18T00:16:42.278Z,12.3
2017-10-18T00:17:42.932Z,12.2
2017-10-18T00:18:43.587Z,12.1
2017-10-18T00:19:44.294Z,12.2
2017-10-18T00:20:44.946Z,12.2
2017-10-18T00:21:45.600Z,12.2
2017-10-18T00:22:46.261Z,12.2
2017-10-18T00:23:46.910Z,12.2
2017-10-18T00:24:47.616Z,12.2
2017-10-18T00:25:48.270Z,12.2
2017-10-18T00:26:48.925Z,12.2
2017-10-18T00:27:49.581Z,12.2
2017-10-18T00:28:50.235Z,12.1
2017-10-18T00:29:50.940Z,12.2
2017-10-18T00:30:51.594Z,12.1
2017-10-18T00:31:52.249Z,12.2
2017-10-18T00:32:52.903Z,12.1
2017-10-18T00:33:53.558Z,12.1
2017-10-18T00:34:54.211Z,12.1
2017-10-18T00:35:54.867Z,12.1
2017-10-18T00:36:55.522Z,12.1
2017-10-18T00:37:56.175Z,12.2
2017-10-18T00:38:56.830Z,12.2
2017-10-18T00:39:57.518Z,12.1
2017-10-18T00:40:58.171Z,12.1
2017-10-18T00:41:58.827Z,12.1
2017-10-18T00:42:59.480Z,12.2
2017-10-18T00:44:00.135Z,12.1
2017-10-18T00:45:00.788Z,12.0
2017-10-18T00:46:01.446Z,12.0
2017-10-18T00:47:02.099Z,12.0
2017-10-18T00:48:02.755Z,12.1
2017-10-18T00:49:03.410Z,11.9
2017-10-18T00:50:04.114Z,11.9
2017-10-18T00:51:04.770Z,12.0
2017-10-18T00:52:05.424Z,12.0
2017-10-18T00:53:06.079Z,12.0
2017-10-18T00:54:06.732Z,12.1
2017-10-18T00:55:07.387Z,11.9
2017-10-18T00:56:08.042Z,12.0
2017-10-18T00:57:08.696Z,12.0
2017-10-18T00:58:09.351Z,11.9
2017-10-18T00:59:10.004Z,11.9
2017-10-18T01:00:10.659Z,11.9
2017-10-18T01:01:11.313Z,11.9
2017-10-18T01:02:11.968Z,11.9
2017-10-18T01:03:12.627Z,11.9
2017-10-18T01:04:13.281Z,11.9
2017-10-18T01:05:13.936Z,11.9
2017-10-18T01:06:14.589Z,11.9
2017-10-18T01:07:15.280Z,11.9
2017-10-18T01:08:15.933Z,11.9
2017-10-18T01:09:16.588Z,11.7
2017-10-18T01:10:17.240Z,11.8
2017-10-18T01:11:17.896Z,11.8
2017-10-18T01:12:18.550Z,11.7
2017-10-18T01:13:19.203Z,11.9
2017-10-18T01:14:19.858Z,11.7
2017-10-18T01:15:20.512Z,11.8
2017-10-18T01:16:21.167Z,11.9
2017-10-18T01:17:21.819Z,11.8
2017-10-18T01:18:22.472Z,11.7
2017-10-18T01:19:23.126Z,11.7
2017-10-18T01:20:23.781Z,11.7
2017-10-18T01:21:24.434Z,11.7
2017-10-18T01:22:25.090Z,11.7
2017-10-18T01:23:25.745Z,11.6
2017-10-18T01:24:26.398Z,11.6
2017-10-18T01:25:27.052Z,11.5
2017-10-18T01:26:27.705Z,11.5
2017-10-18T01:27:28.360Z,11.6
2017-10-18T01:28:29.013Z,11.6
2017-10-18T01:29:29.702Z,11.6
2017-10-18T01:30:30.359Z,11.5
2017-10-18T01:31:31.013Z,11.6
2017-10-18T01:32:31.667Z,11.5
2017-10-18T01:33:32.323Z,11.5
2017-10-18T01:34:33.010Z,11.5
2017-10-18T01:35:33.665Z,11.4
2017-10-18T01:36:34.318Z,11.4
2017-10-18T01:37:34.975Z,11.4
2017-10-18T01:38:35.626Z,11.3
2017-10-18T01:39:36.280Z,11.4
2017-10-18T01:40:36.934Z,11.3
2017-10-18T01:41:37.588Z,11.3
2017-10-18T01:42:38.242Z,11.4
2017-10-18T01:43:38.902Z,11.4
2017-10-18T01:44:39.552Z,11.3
2017-10-18T01:45:40.254Z,11.4
2017-10-18T01:46:40.908Z,11.2
2017-10-18T01:47:41.563Z,11.2
2017-10-18T01:48:42.217Z,11.3
2017-10-18T01:49:42.870Z,11.3
2017-10-18T01:50:43.524Z,11.2
2017-10-18T01:51:44.178Z,11.2
2017-10-18T01:52:44.832Z,11.2
2017-10-18T01:53:45.487Z,11.1
2017-10-18T01:54:46.140Z,11.2
2017-10-18T01:55:46.796Z,11.2
2017-10-18T01:56:47.450Z,11.1
2017-10-18T01:57:48.105Z,11.2
2017-10-18T01:58:48.758Z,11.0
2017-10-18T01:59:49.413Z,11.1
2017-10-18T02:00:50.067Z,11.0
2017-10-18T02:01:50.721Z,11.0
2017-10-18T02:02:51.374Z,11.0
2017-10-18T02:03:52.030Z,10.9
2017-10-18T02:04:52.683Z,10.9
2017-10-18T02:05:53.337Z,10.9
2017-10-18T02:06:53.990Z,11.0
2017-10-18T02:07:54.646Z,10.9
2017-10-18T02:08:55.334Z,11.0
2017-10-18T02:09:55.988Z,10.9
2017-10-18T02:10:56.645Z,10.9
2017-10-18T02:11:57.298Z,10.9
2017-10-18T02:12:57.954Z,10.9
2017-10-18T02:13:58.607Z,10.8
2017-10-18T02:14:59.264Z,10.9
2017-10-18T02:15:59.918Z,10.9
2017-10-18T02:17:00.572Z,10.8
2017-10-18T02:18:01.227Z,10.9
2017-10-18T02:19:01.887Z,10.9
2017-10-18T02:20:02.536Z,10.8
2017-10-18T02:21:03.192Z,10.8
2017-10-18T02:22:03.846Z,10.8
2017-10-18T02:23:04.503Z,10.8
2017-10-18T02:24:05.157Z,10.8
2017-10-18T02:25:05.812Z,10.8
2017-10-18T02:26:06.466Z,10.8
2017-10-18T02:27:07.122Z,10.9
2017-10-18T02:28:07.775Z,10.9
2017-10-18T02:29:08.429Z,10.9
2017-10-18T02:30:09.090Z,10.9
2017-10-18T02:31:09.790Z,10.8
2017-10-18T02:32:10.444Z,10.8
2017-10-18T02:33:11.099Z,10.9
2017-10-18T02:34:11.753Z,10.9
2017-10-18T02:36:25.932Z,11.0
2017-10-18T02:37:26.583Z,10.9
2017-10-18T02:38:27.288Z,10.8
2017-10-18T02:39:27.942Z,10.8
2017-10-18T02:40:28.635Z,10.9
2017-10-18T02:41:29.288Z,10.9
2017-10-18T02:42:29.942Z,10.8
2017-10-18T02:43:30.647Z,10.8
2017-10-18T02:44:31.353Z,10.9
2017-10-18T02:45:32.008Z,10.9
2017-10-18T02:46:32.714Z,10.8
2017-10-18T02:47:33.368Z,10.8
2017-10-18T02:48:34.024Z,10.9
2017-10-18T02:49:34.676Z,10.8
2017-10-18T02:50:35.330Z,10.8
2017-10-18T02:51:35.982Z,10.8
2017-10-18T02:52:36.637Z,10.7
2017-10-18T02:53:37.294Z,10.8
2017-10-18T02:54:37.999Z,10.8
2017-10-18T02:55:38.651Z,10.7
2017-10-18T02:56:39.356Z,10.8
2017-10-18T02:57:40.062Z,10.8
2017-10-18T02:58:40.717Z,10.8
2017-10-18T02:59:41.422Z,10.7
2017-10-18T03:00:42.135Z,10.8
2017-10-18T03:01:42.784Z,10.8
2017-10-18T03:02:43.438Z,10.6
2017-10-18T03:03:44.130Z,10.7
2017-10-18T03:04:44.784Z,10.7
2017-10-18T03:05:45.441Z,10.7
2017-10-18T03:06:46.144Z,10.7
2017-10-18T03:07:46.854Z,10.6
2017-10-18T03:08:47.504Z,10.5
2017-10-18T03:09:48.208Z,10.6
2017-10-18T03:10:48.912Z,10.7
2017-10-18T03:11:49.567Z,10.5
2017-10-18T03:12:50.273Z,10.6
2017-10-18T03:13:50.927Z,10.6
2017-10-18T03:14:51.633Z,10.5
2017-10-18T03:15:52.287Z,10.5
2017-10-18T03:16:52.940Z,10.5
2017-10-18T03:17:53.631Z,10.4
2017-10-18T03:18:54.336Z,10.5
2017-10-18T03:19:55.040Z,10.5
2017-10-18T03:20:55.697Z,10.4
2017-10-18T03:21:56.408Z,10.4
2017-10-18T03:22:57.056Z,10.4
2017-10-18T03:23:57.761Z,10.4
2017-10-18T03:24:58.415Z,10.4
2017-10-18T03:25:59.072Z,10.4
2017-10-18T03:26:59.774Z,10.4
2017-10-18T03:28:00.429Z,10.5
2017-10-18T03:29:01.087Z,10.5
2017-10-18T03:30:01.741Z,10.4
2017-10-18T03:31:02.397Z,10.4
2017-10-18T03:32:03.137Z,10.5
2017-10-18T03:33:03.793Z,10.4
2017-10-18T03:34:04.449Z,10.4
2017-10-18T03:35:05.152Z,10.4
2017-10-18T03:36:05.806Z,10.5
2017-10-18T03:37:06.460Z,10.4
2017-10-18T03:38:07.116Z,10.5
2017-10-18T03:39:07.820Z,10.5
2017-10-18T03:40:08.472Z,10.4
2017-10-18T03:41:09.136Z,10.5
2017-10-18T03:42:09.870Z,10.5
2017-10-18T03:43:10.580Z,10.5
2017-10-18T03:44:11.231Z,10.5
2017-10-18T03:45:11.934Z,10.5
2017-10-18T03:46:12.589Z,10.5
2017-10-18T03:47:13.246Z,10.6
2017-10-18T03:48:13.899Z,10.5
2017-10-18T03:49:14.558Z,10.5
2017-10-18T03:50:15.263Z,10.5
2017-10-18T03:51:15.912Z,10.5
2017-10-18T03:52:16.567Z,10.5
2017-10-18T03:53:17.273Z,10.5
2017-10-18T03:54:17.978Z,10.5
2017-10-18T03:55:18.634Z,10.5
2017-10-18T03:56:19.338Z,10.5
2017-10-18T03:57:19.991Z,10.5
2017-10-18T03:58:20.646Z,10.5
2017-10-18T03:59:21.352Z,10.5
2017-10-18T04:00:22.065Z,10.6
2017-10-18T04:01:22.714Z,10.6
2017-10-18T04:02:23.367Z,10.7
2017-10-18T04:03:24.021Z,10.7
2017-10-18T04:04:24.725Z,10.6
2017-10-18T04:05:25.378Z,10.6
2017-10-18T04:06:26.035Z,10.6
2017-10-18T04:07:26.688Z,10.6
2017-10-18T04:08:27.343Z,10.6
2017-10-18T04:09:27.997Z,10.6
2017-10-18T04:10:28.656Z,10.6
2017-10-18T04:11:29.357Z,10.6
2017-10-18T04:12:30.011Z,10.7
2017-10-18T04:13:30.665Z,10.6
2017-10-18T04:14:31.320Z,10.7
2017-10-18T04:15:31.974Z,10.6
2017-10-18T04:16:32.629Z,10.7
2017-10-18T04:17:33.283Z,10.7
2017-10-18T04:18:33.941Z,10.8
2017-10-18T04:19:34.681Z,10.7
2017-10-18T04:20:35.385Z,10.7
2017-10-18T04:21:36.087Z,10.7
2017-10-18T04:22:36.742Z,10.7
2017-10-18T04:23:37.445Z,10.8
2017-10-18T04:24:38.101Z,10.7
2017-10-18T04:25:38.754Z,10.8
2017-10-18T04:26:39.458Z,10.9
2017-10-18T04:27:40.113Z,10.8
2017-10-18T04:28:40.768Z,10.9
2017-10-18T04:29:41.473Z,10.9
2017-10-18T04:30:42.165Z,10.9
2017-10-18T04:31:42.819Z,10.8
2017-10-18T04:32:43.473Z,11.0
2017-10-18T04:33:44.164Z,10.9
2017-10-18T04:34:44.824Z,10.9
2017-10-18T04:35:45.523Z,10.9
2017-10-18T04:36:46.177Z,10.9
2017-10-18T04:37:46.877Z,11.0
2017-10-18T04:38:47.522Z,10.9
2017-10-18T04:39:48.177Z,10.9
2017-10-18T04:40:48.881Z,11.1
2017-10-18T04:41:49.535Z,11.0
2017-10-18T04:42:50.189Z,10.9
2017-10-18T04:43:50.893Z,11.0
2017-10-18T04:44:51.548Z,11.0
2017-10-18T04:45:52.199Z,11.0
2017-10-18T04:46:52.903Z,11.0
2017-10-18T04:47:53.558Z,11.0
2017-10-18T04:48:54.211Z,11.0
2017-10-18T04:49:54.864Z,11.1
2017-10-18T04:50:55.518Z,11.0
2017-10-18T04:51:56.172Z,11.0
2017-10-18T04:52:56.826Z,11.0
2017-10-18T04:53:57.529Z,11.0
2017-10-18T04:54:58.188Z,11.0
2017-10-18T04:55:58.835Z,10.9
2017-10-18T04:56:59.538Z,11.0
2017-10-18T04:58:00.192Z,11.0
2017-10-18T04:59:00.894Z,10.9
2017-10-18T05:00:01.587Z,10.9
2017-10-18T05:01:02.325Z,10.9
2017-10-18T05:02:03.030Z,10.9
2017-10-18T05:03:03.734Z,10.9
2017-10-18T05:04:04.385Z,10.9
2017-10-18T05:05:05.091Z,11.0
2017-10-18T05:06:05.795Z,10.9
2017-10-18T05:07:06.448Z,10.9
2017-10-18T05:08:07.102Z,10.9
2017-10-18T05:09:07.755Z,10.9
2017-10-18T05:10:08.460Z,10.9
2017-10-18T05:11:09.115Z,10.9
2017-10-18T05:12:09.766Z,11.0
2017-10-18T05:13:10.424Z,10.9
2017-10-18T05:14:11.111Z,11.0
2017-10-18T05:15:11.769Z,10.9
2017-10-18T05:16:12.468Z,11.0
2017-10-18T05:17:13.171Z,10.9
2017-10-18T05:18:13.882Z,10.9
2017-10-18T05:19:14.529Z,10.9
2017-10-18T05:20:15.183Z,10.9
2017-10-18T05:21:15.836Z,10.9
2017-10-18T05:22:16.491Z,11.0
2017-10-18T05:23:17.146Z,10.9
2017-10-18T05:24:17.800Z,10.9
2017-10-18T05:25:18.456Z,10.9
2017-10-18T05:26:19.110Z,10.9
2017-10-18T05:27:19.767Z,10.9
2017-10-18T05:28:20.422Z,11.0
2017-10-18T05:29:21.078Z,11.0
2017-10-18T05:30:21.736Z,10.9
2017-10-18T05:31:22.391Z,10.9
2017-10-18T05:32:23.048Z,10.9
2017-10-18T05:33:23.754Z,10.9
2017-10-18T05:34:24.409Z,10.9
2017-10-18T05:35:25.065Z,10.9
2017-10-18T05:36:25.719Z,11.0
2017-10-18T05:37:26.378Z,10.9
2017-10-18T05:38:27.031Z,10.9
2017-10-18T05:39:27.687Z,10.9
2017-10-18T05:40:28.342Z,10.8
2017-10-18T05:41:28.998Z,10.9
2017-10-18T05:42:29.655Z,10.9
2017-10-18T05:43:30.307Z,10.9
2017-10-18T05:44:30.962Z,10.9
2017-10-18T05:45:31.671Z,10.8
2017-10-18T05:46:32.330Z,10.9
2017-10-18T05:47:33.037Z,10.8
2017-10-18T05:48:33.746Z,10.9
2017-10-18T05:49:34.406Z,10.9
2017-10-18T05:50:35.063Z,10.9
2017-10-18T05:51:35.720Z,10.9
2017-10-18T05:52:36.429Z,10.9
2017-10-18T05:53:37.087Z,10.9
2017-10-18T05:54:37.745Z,10.8
2017-10-18T05:55:38.403Z,10.9
2017-10-18T05:56:39.061Z,10.9
2017-10-18T05:57:39.717Z,11.0
2017-10-18T05:58:40.374Z,11.0
2017-10-18T05:59:41.030Z,11.0
2017-10-18T06:00:41.693Z,11.0
2017-10-18T06:01:42.350Z,11.0
2017-10-18T06:02:43.002Z,11.0
2017-10-18T06:03:43.708Z,11.0
2017-10-18T06:04:44.367Z,11.0
2017-10-18T06:05:45.023Z,11.1
2017-10-18T06:06:45.729Z,11.0
2017-10-18T06:07:46.389Z,11.0
2017-10-18T06:08:47.081Z,11.0
2017-10-18T06:09:47.737Z,11.0
2017-10-18T06:10:48.394Z,10.9
2017-10-18T06:11:49.102Z,10.9
2017-10-18T06:12:49.760Z,10.9
2017-10-18T06:13:50.417Z,10.9
2017-10-18T06:14:51.074Z,10.8
2017-10-18T06:15:51.732Z,10.9
2017-10-18T06:16:52.388Z,10.9
2017-10-18T06:17:53.045Z,10.8
2017-10-18T06:18:53.705Z,10.8
2017-10-18T06:19:54.361Z,10.7
2017-10-18T06:20:55.019Z,10.7
2017-10-18T06:21:55.677Z,10.8
2017-10-18T06:22:56.424Z,10.7
2017-10-18T06:23:57.081Z,10.8
2017-10-18T06:24:57.739Z,10.8
2017-10-18T06:25:58.397Z,10.9
2017-10-18T06:26:59.056Z,10.9
2017-10-18T06:27:59.763Z,10.8
2017-10-18T06:29:00.422Z,10.8
2017-10-18T06:30:01.081Z,10.8
2017-10-18T06:31:01.790Z,10.8
2017-10-18T06:32:02.498Z,10.8
2017-10-18T06:33:03.192Z,10.8
2017-10-18T06:34:03.903Z,10.8
2017-10-18T06:35:04.564Z,10.8
2017-10-18T06:36:05.270Z,10.9
2017-10-18T06:37:05.962Z,10.9
2017-10-18T06:38:06.620Z,10.9
2017-10-18T06:39:07.276Z,10.9
2017-10-18T06:40:07.936Z,11.0
2017-10-18T06:41:08.597Z,11.0
2017-10-18T06:42:09.255Z,11.0
2017-10-18T06:43:09.914Z,11.0
2017-10-18T06:44:10.573Z,11.1
2017-10-18T06:45:11.230Z,11.1
2017-10-18T06:46:11.890Z,11.2
2017-10-18T06:47:12.549Z,11.2
2017-10-18T06:48:13.207Z,11.3
2017-10-18T06:49:13.916Z,11.3
2017-10-18T06:50:14.625Z,11.4
2017-10-18T06:51:15.283Z,11.3
2017-10-18T06:52:15.943Z,11.4
2017-10-18T06:53:16.687Z,11.4
2017-10-18T06:54:17.397Z,11.5
2017-10-18T06:55:18.105Z,11.5
2017-10-18T06:56:18.764Z,11.5
2017-10-18T06:57:19.423Z,11.5
2017-10-18T06:58:20.084Z,11.5
2017-10-18T06:59:20.798Z,11.5
2017-10-18T07:00:21.496Z,11.6
2017-10-18T07:01:22.146Z,11.5
2017-10-18T07:02:22.806Z,11.6
2017-10-18T07:03:23.465Z,11.6
2017-10-18T07:04:24.176Z,11.6
2017-10-18T07:05:24.885Z,11.7
2017-10-18T07:06:25.596Z,11.7
2017-10-18T07:07:26.255Z,11.7
2017-10-18T07:08:26.967Z,11.7
2017-10-18T07:09:27.677Z,11.7
2017-10-18T07:10:28.338Z,11.7
2017-10-18T07:11:28.999Z,11.8
2017-10-18T07:12:29.711Z,11.9
2017-10-18T07:13:30.372Z,11.8
2017-10-18T07:14:31.032Z,11.9
2017-10-18T07:15:31.691Z,11.8
2017-10-18T07:16:32.350Z,11.8
2017-10-18T07:17:33.059Z,11.8
2017-10-18T07:18:33.719Z,11.8
2017-10-18T07:19:34.379Z,11.9
2017-10-18T07:20:35.090Z,11.8
2017-10-18T07:21:35.749Z,11.7
2017-10-18T07:22:36.411Z,11.7
2017-10-18T07:23:37.072Z,11.7
2017-10-18T07:24:37.732Z,11.7
2017-10-18T07:25:38.390Z,11.7
2017-10-18T07:26:39.050Z,11.7
2017-10-18T07:27:39.760Z,11.7
2017-10-18T07:28:40.470Z,11.7
2017-10-18T07:29:41.179Z,11.7
2017-10-18T07:30:41.889Z,11.7
2017-10-18T07:31:42.552Z,11.7
2017-10-18T07:32:43.244Z,11.6
2017-10-18T07:33:43.905Z,11.7
2017-10-18T07:34:44.565Z,11.7
2017-10-18T07:35:45.274Z,11.7
2017-10-18T07:36:45.934Z,11.7
2017-10-18T07:37:46.591Z,11.7
2017-10-18T07:38:47.251Z,11.7
2017-10-18T07:39:47.911Z,11.7
2017-10-18T07:40:48.620Z,11.7
2017-10-18T07:41:49.280Z,11.7
2017-10-18T07:42:49.941Z,11.7
2017-10-18T07:43:50.602Z,11.8
2017-10-18T07:44:51.262Z,11.8
2017-10-18T07:45:51.972Z,11.9
2017-10-18T07:46:52.631Z,11.9
2017-10-18T07:47:53.291Z,12.0
2017-10-18T07:48:53.951Z,12.0
2017-10-18T07:49:54.610Z,12.0
2017-10-18T07:50:55.322Z,12.1
2017-10-18T07:51:56.031Z,12.1
2017-10-18T07:52:56.692Z,12.1
2017-10-18T07:53:57.353Z,12.1
2017-10-18T07:54:58.015Z,12.2
2017-10-18T07:55:58.672Z,12.3
2017-10-18T07:56:59.339Z,12.3
2017-10-18T07:59:05.575Z,12.4
2017-10-18T08:00:06.236Z,12.4
2017-10-18T08:01:06.897Z,12.3
2017-10-18T08:02:07.555Z,12.4
2017-10-18T08:03:08.267Z,12.4
2017-10-18T08:04:08.978Z,12.5
2017-10-18T08:05:09.641Z,12.6
2017-10-18T08:06:10.349Z,12.6
2017-10-18T08:07:11.053Z,12.6
2017-10-18T08:08:11.755Z,12.6
2017-10-18T08:09:12.418Z,12.7
2017-10-18T08:10:13.124Z,12.7
2017-10-18T08:11:13.783Z,12.7
2017-10-18T08:12:14.494Z,12.8
2017-10-18T08:13:15.155Z,12.8
2017-10-18T08:14:15.866Z,12.8
2017-10-18T08:15:16.526Z,12.8
2017-10-18T08:16:17.235Z,12.8
2017-10-18T08:17:17.951Z,12.8
2017-10-18T08:18:18.606Z,12.9
2017-10-18T08:19:19.267Z,12.9
2017-10-18T08:20:19.985Z,12.9
2017-10-18T08:21:20.693Z,12.9
2017-10-18T08:22:21.351Z,12.9
2017-10-18T08:23:22.013Z,13.0
2017-10-18T08:24:22.675Z,13.0
2017-10-18T08:25:23.371Z,13.0
2017-10-18T08:26:24.115Z,13.0
2017-10-18T08:27:24.776Z,13.1
2017-10-18T08:28:25.487Z,13.1
2017-10-18T08:29:26.147Z,13.2
2017-10-18T08:30:26.808Z,13.2
2017-10-18T08:31:27.474Z,13.2
2017-10-18T08:32:28.168Z,13.3
2017-10-18T08:33:28.828Z,13.4
2017-10-18T08:34:29.489Z,13.3
2017-10-18T08:35:30.149Z,13.4
2017-10-18T08:36:30.815Z,13.5
2017-10-18T08:37:31.509Z,13.5
2017-10-18T08:38:32.169Z,13.5
2017-10-18T08:39:32.830Z,13.7
2017-10-18T08:40:33.492Z,13.7
2017-10-18T08:41:34.152Z,13.7
2017-10-18T08:42:34.814Z,13.7
2017-10-18T08:43:35.476Z,13.7
2017-10-18T08:44:36.187Z,13.9
2017-10-18T08:45:36.850Z,13.9
2017-10-18T08:46:37.511Z,14.0
2017-10-18T08:47:38.172Z,13.9
2017-10-18T08:48:38.833Z,14.0
2017-10-18T08:49:39.494Z,14.0
2017-10-18T08:50:40.153Z,14.0
2017-10-18T08:51:40.817Z,14.1
2017-10-18T08:52:41.565Z,14.1
2017-10-18T08:53:42.226Z,14.2
2017-10-18T08:54:42.940Z,14.3
2017-10-18T08:55:43.632Z,14.2
2017-10-18T08:56:44.380Z,14.3
2017-10-18T08:57:45.038Z,14.4
2017-10-18T08:58:45.701Z,14.4
2017-10-18T08:59:46.364Z,14.4
2017-10-18T09:00:47.024Z,14.5
2017-10-18T09:01:47.736Z,14.6
2017-10-18T09:02:48.396Z,14.7
2017-10-18T09:03:49.106Z,14.7
2017-10-18T09:04:49.768Z,14.7
2017-10-18T09:05:50.429Z,14.8
2017-10-18T09:06:51.141Z,14.8
2017-10-18T09:07:51.802Z,14.9
2017-10-18T09:08:52.464Z,14.8
2017-10-18T09:09:53.127Z,14.9
2017-10-18T09:10:53.787Z,15.0
2017-10-18T09:11:54.533Z,15.0
2017-10-18T09:12:55.195Z,15.1
2017-10-18T09:13:55.855Z,15.1
2017-10-18T09:14:56.572Z,15.1
2017-10-18T09:15:57.226Z,15.2
2017-10-18T09:16:57.888Z,15.3
2017-10-18T09:17:58.549Z,15.3
2017-10-18T09:18:59.210Z,15.5
2017-10-18T09:19:59.872Z,15.5
2017-10-18T09:21:00.534Z,15.4
2017-10-18T09:22:01.195Z,15.6
2017-10-18T09:23:01.861Z,15.6
2017-10-18T09:24:02.520Z,15.6
2017-10-18T09:25:03.183Z,15.7
2017-10-18T09:26:03.842Z,15.8
2017-10-18T09:27:04.504Z,15.8
2017-10-18T09:28:05.167Z,15.7
2017-10-18T09:29:05.879Z,15.8
2017-10-18T09:30:06.579Z,15.8
2017-10-18T09:31:07.275Z,15.9
2017-10-18T09:32:07.940Z,15.9
2017-10-18T09:33:08.598Z,15.9
2017-10-18T09:34:09.261Z,15.9
2017-10-18T09:35:09.972Z,15.8
2017-10-18T09:36:10.684Z,15.9
2017-10-18T09:37:11.395Z,15.8
2017-10-18T09:38:12.059Z,15.9
2017-10-18T09:39:12.771Z,15.9
2017-10-18T09:40:13.432Z,16.0
2017-10-18T09:41:14.096Z,16.0
2017-10-18T09:42:14.761Z,16.1
2017-10-18T09:43:15.473Z,16.1
2017-10-18T09:44:16.188Z,16.0
2017-10-18T09:45:16.854Z,16.0
2017-10-18T09:46:17.549Z,16.0
2017-10-18T09:47:18.211Z,16.1
2017-10-18T09:48:18.873Z,16.1
2017-10-18T09:49:19.534Z,16.2
2017-10-18T09:50:20.251Z,16.2
2017-10-18T09:51:20.912Z,16.2
2017-10-18T09:52:21.610Z,16.2
2017-10-18T09:53:22.321Z,16.3
2017-10-18T09:54:22.983Z,16.3
2017-10-18T09:55:23.646Z,16.3
2017-10-18T09:56:24.307Z,16.3
2017-10-18T09:57:24.968Z,16.4
2017-10-18T09:58:25.632Z,16.4
2017-10-18T09:59:26.296Z,16.5
2017-10-18T10:00:27.008Z,16.6
2017-10-18T10:01:27.672Z,16.5
2017-10-18T10:02:28.333Z,16.6
2017-10-18T10:03:28.995Z,16.7
2017-10-18T10:04:29.656Z,16.7
2017-10-18T10:05:30.367Z,16.7
2017-10-18T10:06:31.030Z,16.7
2017-10-18T10:07:31.692Z,16.7
2017-10-18T10:08:32.356Z,16.7
2017-10-18T10:09:33.018Z,16.8
2017-10-18T10:10:33.728Z,16.9
2017-10-18T10:11:34.390Z,17.0
2017-10-18T10:12:35.053Z,17.1
2017-10-18T10:13:35.717Z,17.0
2017-10-18T10:14:36.380Z,17.1
2017-10-18T10:15:37.043Z,17.1
2017-10-18T10:16:37.757Z,17.2
2017-10-18T10:17:38.420Z,17.1
2017-10-18T10:18:39.085Z,17.2
2017-10-18T10:19:39.747Z,17.3
2017-10-18T10:20:40.459Z,17.3
2017-10-18T10:21:41.122Z,17.3
2017-10-18T10:22:41.820Z,17.5
2017-10-18T10:23:42.481Z,17.5
2017-10-18T10:24:43.180Z,17.5
2017-10-18T10:25:43.842Z,17.6
2017-10-18T10:26:44.504Z,17.7
2017-10-18T10:27:45.168Z,17.8
2017-10-18T10:28:45.829Z,17.8
2017-10-18T10:29:46.493Z,17.8
2017-10-18T10:30:47.193Z,18.0
2017-10-18T10:31:47.855Z,18.0
2017-10-18T10:32:48.554Z,18.1
2017-10-18T10:33:49.216Z,18.2
2017-10-18T10:34:49.881Z,18.3
2017-10-18T10:35:50.595Z,18.2
2017-10-18T10:36:51.266Z,18.4
2017-10-18T10:37:51.921Z,18.4
2017-10-18T10:38:52.635Z,18.5
2017-10-18T10:39:53.297Z,18.6
2017-10-18T10:40:54.010Z,18.6
2017-10-18T10:41:54.714Z,18.6
2017-10-18T10:42:55.373Z,18.6
2017-10-18T10:43:56.124Z,18.6
2017-10-18T10:44:56.789Z,18.6
2017-10-18T10:45:57.451Z,18.7
2017-10-18T10:46:58.163Z,18.7
2017-10-18T10:47:58.825Z,18.8
2017-10-18T10:48:59.528Z,18.7
2017-10-18T10:50:00.188Z,18.8
2017-10-18T10:51:00.857Z,18.8
2017-10-18T10:52:01.519Z,18.9
2017-10-18T10:53:02.233Z,18.8
2017-10-18T10:54:02.898Z,18.8
2017-10-18T10:55:03.561Z,18.8
2017-10-18T10:56:04.308Z,18.9
2017-10-18T10:57:05.023Z,18.9
2017-10-18T10:58:05.686Z,18.9
2017-10-18T10:59:06.351Z,18.9
2017-10-18T11:00:07.017Z,18.8
2017-10-18T11:01:07.684Z,19.0
2017-10-18T11:02:08.396Z,19.0
2017-10-18T11:03:09.060Z,19.0
2017-10-18T11:04:09.724Z,19.0
2017-10-18T11:05:10.436Z,19.0
2017-10-18T11:06:11.100Z,19.0
2017-10-18T11:07:11.770Z,19.1
2017-10-18T11:08:12.428Z,19.1
2017-10-18T11:09:13.093Z,19.0
2017-10-18T11:10:13.755Z,19.1
2017-10-18T11:11:14.421Z,19.1
2017-10-18T11:12:15.084Z,19.1
2017-10-18T11:13:15.747Z,19.1
2017-10-18T11:14:16.460Z,19.1
2017-10-18T11:15:17.124Z,19.1
2017-10-18T11:16:17.788Z,19.2
2017-10-18T11:17:18.501Z,19.1
2017-10-18T11:18:19.164Z,19.2
2017-10-18T11:19:19.828Z,19.2
2017-10-18T11:20:20.492Z,19.2
2017-10-18T11:21:21.208Z,19.2
2017-10-18T11:22:21.872Z,19.2
2017-10-18T11:23:22.534Z,19.3
2017-10-18T11:24:23.247Z,19.2
2017-10-18T11:25:23.911Z,19.2
2017-10-18T11:26:24.625Z,19.3
2017-10-18T11:27:25.287Z,19.3
2017-10-18T11:28:25.951Z,19.3
2017-10-18T11:29:26.665Z,19.3
2017-10-18T11:30:27.378Z,19.3
2017-10-18T11:31:28.040Z,19.4
2017-10-18T11:32:28.705Z,19.4
2017-10-18T11:33:29.369Z,19.4
2017-10-18T11:34:30.032Z,19.4
2017-10-18T11:35:30.746Z,19.5
2017-10-18T11:36:31.461Z,19.4
2017-10-18T11:37:32.122Z,19.5
2017-10-18T11:38:32.787Z,19.5
2017-10-18T11:39:33.450Z,19.5
2017-10-18T11:40:34.162Z,19.6
2017-10-18T11:41:34.825Z,19.5
2017-10-18T11:42:35.492Z,19.5
2017-10-18T11:43:36.206Z,19.5
2017-10-18T11:44:36.872Z,19.6
2017-10-18T11:45:37.588Z,19.6
2017-10-18T11:46:38.303Z,19.7
2017-10-18T11:47:38.969Z,19.5
2017-10-18T11:48:39.634Z,19.5
2017-10-18T11:49:40.381Z,19.5
2017-10-18T11:50:41.094Z,19.6
2017-10-18T11:51:41.757Z,19.6
2017-10-18T11:52:42.421Z,19.6
2017-10-18T11:53:43.083Z,19.6
2017-10-18T11:54:43.749Z,19.7
2017-10-18T11:55:44.416Z,19.6
2017-10-18T11:56:45.128Z,19.7
2017-10-18T11:57:45.794Z,19.7
2017-10-18T11:58:46.506Z,19.6
2017-10-18T11:59:47.170Z,19.7
2017-10-18T12:00:47.870Z,19.7
2017-10-18T12:01:48.534Z,19.7
2017-10-18T12:02:49.247Z,19.7
2017-10-18T12:03:49.960Z,19.7
2017-10-18T12:04:50.622Z,19.8
2017-10-18T12:05:51.286Z,19.8
2017-10-18T12:06:51.951Z,19.7
2017-10-18T12:07:52.614Z,19.8
2017-10-18T12:08:53.334Z,19.8
2017-10-18T12:09:54.042Z,19.8
2017-10-18T12:10:54.755Z,19.8
2017-10-18T12:11:55.474Z,19.9
2017-10-18T12:12:56.129Z,19.9
2017-10-18T12:13:56.831Z,19.9
2017-10-18T12:14:57.492Z,19.9
2017-10-18T12:15:58.158Z,19.9
2017-10-18T12:16:58.823Z,20.0
2017-10-18T12:17:59.573Z,20.0
2017-10-18T12:19:00.285Z,20.0
2017-10-18T12:20:00.949Z,20.1
2017-10-18T12:21:01.621Z,20.1
2017-10-18T12:22:02.279Z,20.1
2017-10-18T12:23:02.946Z,20.1
2017-10-18T12:24:03.607Z,20.1
2017-10-18T12:25:04.272Z,20.2
2017-10-18T12:26:04.991Z,20.1
2017-10-18T12:27:05.656Z,20.2
2017-10-18T12:28:06.364Z,20.2
2017-10-18T12:29:07.028Z,20.2
2017-10-18T12:30:07.776Z,20.2
2017-10-18T12:31:08.440Z,20.3
2017-10-18T12:32:09.105Z,20.1
2017-10-18T12:33:09.769Z,20.2
2017-10-18T12:34:10.434Z,20.3
2017-10-18T12:35:11.100Z,20.2
2017-10-18T12:36:11.763Z,20.3
2017-10-18T12:37:12.427Z,20.3
2017-10-18T12:38:13.140Z,20.4
2017-10-18T12:39:13.854Z,20.4
2017-10-18T12:40:14.569Z,20.3
2017-10-18T12:41:15.235Z,20.4
2017-10-18T12:42:15.900Z,20.3
2017-10-18T12:43:16.569Z,20.3
2017-10-18T12:44:17.278Z,20.3
2017-10-18T12:45:17.942Z,20.3
2017-10-18T12:46:18.694Z,20.4
2017-10-18T12:47:19.389Z,20.4
2017-10-18T12:48:20.020Z,20.4
2017-10-18T12:49:20.684Z,20.4
2017-10-18T12:50:21.350Z,20.4
2017-10-18T12:51:22.012Z,20.4
2017-10-18T12:52:22.678Z,20.4
2017-10-18T12:53:23.345Z,20.4
2017-10-18T12:54:24.010Z,20.4
2017-10-18T12:55:24.673Z,20.4
2017-10-18T12:56:25.337Z,20.4
2017-10-18T12:57:26.002Z,20.4
2017-10-18T12:58:26.666Z,20.4
2017-10-18T12:59:27.341Z,20.4
2017-10-18T13:00:28.082Z,20.4
2017-10-18T13:01:28.747Z,20.4
2017-10-18T13:02:29.461Z,20.4
2017-10-18T13:03:30.124Z,20.4
2017-10-18T13:04:30.839Z,20.4
2017-10-18T13:05:31.504Z,20.4
2017-10-18T13:06:32.235Z,20.4
2017-10-18T13:07:32.881Z,20.5
2017-10-18T13:08:33.549Z,20.5
2017-10-18T13:09:34.248Z,20.5
2017-10-18T13:10:34.918Z,20.5
2017-10-18T13:11:35.639Z,20.5
2017-10-18T13:12:36.347Z,20.5
2017-10-18T13:13:37.013Z,20.5
2017-10-18T13:14:37.729Z,20.5
2017-10-18T13:15:38.448Z,20.5
2017-10-18T13:16:39.161Z,20.5
2017-10-18T13:17:39.876Z,20.5
2017-10-18T13:18:40.542Z,20.6
2017-10-18T13:19:41.207Z,20.5
2017-10-18T13:20:41.871Z,20.5
2017-10-18T13:21:42.535Z,20.5
2017-10-18T13:22:43.248Z,20.6
2017-10-18T13:23:43.913Z,20.6
2017-10-18T13:24:44.575Z,20.5
2017-10-18T13:25:45.295Z,20.6
2017-10-18T13:26:46.009Z,20.6
2017-10-18T13:27:46.717Z,20.6
2017-10-18T13:28:47.385Z,20.6
2017-10-18T13:29:48.095Z,20.6